createdAt,value
2017-07-16T00:00:33.228Z,18.05
2017-07-16T00:01:13.748Z,18.08
2017-07-16T00:01:54.293Z,18.05
2017-07-16T00:02:34.835Z,18.08
2017-07-16T00:03:15.376Z,18.02
2017-07-16T00:03:55.906Z,18.08
2017-07-16T00:04:36.440Z,18.08
2017-07-16T00:05:16.986Z,18.03
2017-07-16T00:05:57.519Z,18.03
2017-07-16T00:06:38.059Z,18.05
2017-07-16T00:07:18.594Z,18.07
2017-07-16T00:07:59.131Z,18.02
2017-07-16T00:08:39.663Z,18
2017-07-16T00:09:20.203Z,18.03
2017-07-16T00:10:00.741Z,18.05
2017-07-16T00:10:41.283Z,17.99
2017-07-16T00:11:21.824Z,17.99
2017-07-16T00:12:02.361Z,18
2017-07-16T00:12:42.902Z,18
2017-07-16T00:13:23.444Z,17.99
2017-07-16T00:14:03.985Z,18
2017-07-16T00:14:44.519Z,17.95
2017-07-16T00:15:25.063Z,18.08
2017-07-16T00:16:05.598Z,18.02
2017-07-16T00:16:46.147Z,18.03
2017-07-16T00:17:26.680Z,17.99
2017-07-16T00:18:07.222Z,18.05
2017-07-16T00:18:47.760Z,18.02
2017-07-16T00:19:28.306Z,18.03
2017-07-16T00:20:08.849Z,18.07
2017-07-16T00:20:49.389Z,18.03
2017-07-16T00:21:29.923Z,17.97
2017-07-16T00:22:10.460Z,17.97
2017-07-16T00:22:51.003Z,18
2017-07-16T00:23:31.545Z,18
2017-07-16T00:24:12.086Z,18.05
2017-07-16T00:24:52.628Z,18.05
2017-07-16T00:25:33.168Z,17.96
2017-07-16T00:26:13.711Z,18
2017-07-16T00:26:54.247Z,18
2017-07-16T00:27:34.779Z,18.02
2017-07-16T00:28:15.317Z,18
2017-07-16T00:28:55.859Z,17.96
2017-07-16T00:29:36.395Z,18
2017-07-16T00:30:16.932Z,17.95
2017-07-16T00:30:57.476Z,17.99
2017-07-16T00:31:38.015Z,17.95
2017-07-16T00:32:18.562Z,17.96
2017-07-16T00:32:59.101Z,17.97
2017-07-16T00:33:39.644Z,17.97
2017-07-16T00:34:20.182Z,17.95
2017-07-16T00:35:00.718Z,17.96
2017-07-16T00:35:41.263Z,18.02
2017-07-16T00:36:21.804Z,17.95
2017-07-16T00:37:02.349Z,17.96
2017-07-16T00:37:42.891Z,18
2017-07-16T00:38:23.432Z,17.97
2017-07-16T00:39:03.978Z,17.95
2017-07-16T00:39:44.524Z,18.03
2017-07-16T00:40:25.069Z,18
2017-07-16T00:41:05.613Z,18.02
2017-07-16T00:41:46.156Z,17.95
2017-07-16T00:42:26.703Z,18.07
2017-07-16T00:43:07.240Z,17.97
2017-07-16T00:43:47.775Z,18
2017-07-16T00:44:28.324Z,18
2017-07-16T00:45:08.867Z,18
2017-07-16T00:45:49.410Z,17.99
2017-07-16T00:46:29.956Z,18
2017-07-16T00:47:10.496Z,17.99
2017-07-16T00:47:51.037Z,17.96
2017-07-16T00:48:31.585Z,18
2017-07-16T00:49:12.128Z,17.97
2017-07-16T00:49:52.667Z,17.95
2017-07-16T00:50:33.236Z,18.03
2017-07-16T00:51:13.772Z,17.95
2017-07-16T00:51:54.303Z,18.03
2017-07-16T00:52:34.848Z,17.95
2017-07-16T00:53:15.382Z,18
2017-07-16T00:53:55.958Z,17.96
2017-07-16T00:54:36.501Z,17.96
2017-07-16T00:55:17.038Z,17.96
2017-07-16T00:55:57.586Z,17.9
2017-07-16T00:56:38.122Z,17.95
2017-07-16T00:57:18.667Z,17.9
2017-07-16T00:57:59.205Z,17.93
2017-07-16T00:58:39.749Z,18.05
2017-07-16T00:59:20.290Z,17.93
2017-07-16T01:00:00.830Z,18
2017-07-16T01:00:41.370Z,17.99
2017-07-16T01:01:21.909Z,17.97
2017-07-16T01:02:02.444Z,17.99
2017-07-16T01:02:42.984Z,17.95
2017-07-16T01:03:23.524Z,18.03
2017-07-16T01:04:04.061Z,17.96
2017-07-16T01:04:44.605Z,18.02
2017-07-16T01:05:25.145Z,18
2017-07-16T01:06:05.685Z,17.97
2017-07-16T01:06:46.225Z,18.03
2017-07-16T01:07:26.759Z,17.99
2017-07-16T01:08:07.299Z,17.97
2017-07-16T01:08:47.842Z,18.07
2017-07-16T01:09:28.382Z,17.95
2017-07-16T01:10:08.922Z,18
2017-07-16T01:10:49.482Z,18
2017-07-16T01:11:30.023Z,17.97
2017-07-16T01:12:10.562Z,17.93
2017-07-16T01:12:51.108Z,17.99
2017-07-16T01:13:31.666Z,17.99
2017-07-16T01:14:12.203Z,18.05
2017-07-16T01:14:52.743Z,18.07
2017-07-16T01:15:33.278Z,17.99
2017-07-16T01:16:13.809Z,17.99
2017-07-16T01:16:54.357Z,17.99
2017-07-16T01:17:34.894Z,18
2017-07-16T01:18:15.446Z,17.99
2017-07-16T01:18:55.983Z,18.03
2017-07-16T01:19:36.523Z,18.02
2017-07-16T01:20:17.061Z,18.03
2017-07-16T01:20:57.600Z,18.02
2017-07-16T01:21:38.136Z,18.02
2017-07-16T01:22:18.678Z,18
2017-07-16T01:22:59.218Z,18
2017-07-16T01:23:39.757Z,18.03
2017-07-16T01:24:20.298Z,17.99
2017-07-16T01:25:00.844Z,18.03
2017-07-16T01:25:41.386Z,18.05
2017-07-16T01:26:21.931Z,18.03
2017-07-16T01:27:02.462Z,17.99
2017-07-16T01:27:43.000Z,18.07
2017-07-16T01:28:23.536Z,17.99
2017-07-16T01:29:04.080Z,18.07
2017-07-16T01:29:44.618Z,17.97
2017-07-16T01:30:25.159Z,18.08
2017-07-16T01:31:05.701Z,18.07
2017-07-16T01:31:46.238Z,18.05
2017-07-16T01:32:26.785Z,18.08
2017-07-16T01:33:07.319Z,18.07
2017-07-16T01:33:47.861Z,18.1
2017-07-16T01:34:28.402Z,18.07
2017-07-16T01:35:08.937Z,18.07
2017-07-16T01:35:49.483Z,18.1
2017-07-16T01:36:30.019Z,18.08
2017-07-16T01:37:10.559Z,18.05
2017-07-16T01:37:51.106Z,18.1
2017-07-16T01:38:31.641Z,18.11
2017-07-16T01:39:12.186Z,18.07
2017-07-16T01:39:52.736Z,18.07
2017-07-16T01:40:33.280Z,18.1
2017-07-16T01:41:13.820Z,18.07
2017-07-16T01:41:54.355Z,18.05
2017-07-16T01:42:34.897Z,18.07
2017-07-16T01:43:15.435Z,18.07
2017-07-16T01:43:55.971Z,18.07
2017-07-16T01:44:36.573Z,18.03
2017-07-16T01:45:17.100Z,18.1
2017-07-16T01:45:57.638Z,18.05
2017-07-16T01:46:38.179Z,18
2017-07-16T01:47:18.720Z,18.08
2017-07-16T01:47:59.274Z,18.11
2017-07-16T01:48:39.825Z,18.07
2017-07-16T01:49:20.369Z,18.08
2017-07-16T01:50:00.910Z,18.08
2017-07-16T01:50:41.453Z,18.07
2017-07-16T01:51:21.998Z,18.08
2017-07-16T01:52:02.548Z,18.07
2017-07-16T01:52:43.093Z,18.05
2017-07-16T01:53:23.638Z,18.1
2017-07-16T01:54:04.177Z,18.07
2017-07-16T01:54:44.715Z,18.05
2017-07-16T01:55:25.256Z,18.07
2017-07-16T01:56:05.798Z,18.02
2017-07-16T01:56:46.350Z,18.03
2017-07-16T01:57:26.886Z,18.08
2017-07-16T01:58:07.428Z,18.08
2017-07-16T01:58:47.967Z,18.08
2017-07-16T01:59:28.508Z,18.02
2017-07-16T02:00:09.051Z,18.03
2017-07-16T02:00:49.592Z,18.05
2017-07-16T02:01:30.127Z,18.02
2017-07-16T02:02:10.669Z,17.99
2017-07-16T02:02:51.211Z,17.96
2017-07-16T02:03:31.744Z,17.97
2017-07-16T02:04:12.286Z,18.02
2017-07-16T02:04:52.824Z,18.02
2017-07-16T02:05:33.367Z,18.03
2017-07-16T02:06:13.907Z,18.03
2017-07-16T02:06:54.449Z,17.99
2017-07-16T02:07:34.992Z,17.97
2017-07-16T02:08:15.529Z,17.97
2017-07-16T02:08:56.062Z,18.02
2017-07-16T02:09:36.610Z,17.95
2017-07-16T02:10:17.147Z,17.97
2017-07-16T02:10:57.689Z,17.95
2017-07-16T02:11:38.232Z,17.96
2017-07-16T02:12:18.773Z,17.95
2017-07-16T02:12:59.316Z,18.03
2017-07-16T02:13:39.861Z,18.02
2017-07-16T02:14:20.400Z,18
2017-07-16T02:15:00.939Z,17.97
2017-07-16T02:15:41.482Z,17.97
2017-07-16T02:16:22.019Z,17.99
2017-07-16T02:17:02.569Z,18.05
2017-07-16T02:17:43.110Z,17.95
2017-07-16T02:18:23.651Z,17.97
2017-07-16T02:19:04.199Z,17.99
2017-07-16T02:19:44.739Z,17.99
2017-07-16T02:20:25.288Z,17.95
2017-07-16T02:21:05.834Z,18.02
2017-07-16T02:21:46.380Z,18
2017-07-16T02:22:26.923Z,17.9
2017-07-16T02:23:07.447Z,17.93
2017-07-16T02:23:47.989Z,18.02
2017-07-16T02:24:28.519Z,17.99
2017-07-16T02:25:09.048Z,17.99
2017-07-16T02:25:49.592Z,17.92
2017-07-16T02:26:30.133Z,18.02
2017-07-16T02:27:10.670Z,17.97
2017-07-16T02:27:51.213Z,17.96
2017-07-16T02:28:31.750Z,17.93
2017-07-16T02:29:12.293Z,17.96
2017-07-16T02:29:52.829Z,17.99
2017-07-16T02:30:33.370Z,17.96
2017-07-16T02:31:13.910Z,18
2017-07-16T02:31:54.440Z,17.95
2017-07-16T02:32:34.981Z,17.95
2017-07-16T02:33:15.522Z,17.97
2017-07-16T02:33:56.058Z,18.02
2017-07-16T02:34:36.606Z,17.96
2017-07-16T02:35:17.140Z,18.02
2017-07-16T02:35:57.684Z,17.99
2017-07-16T02:36:38.222Z,17.99
2017-07-16T02:37:18.755Z,17.93
2017-07-16T02:37:59.294Z,17.96
2017-07-16T02:38:39.830Z,17.97
2017-07-16T02:39:20.361Z,17.99
2017-07-16T02:40:00.904Z,17.93
2017-07-16T02:40:41.441Z,17.93
2017-07-16T02:41:21.982Z,17.96
2017-07-16T02:42:02.530Z,17.93
2017-07-16T02:42:43.073Z,17.95
2017-07-16T02:43:23.614Z,17.93
2017-07-16T02:44:04.157Z,17.92
2017-07-16T02:44:44.710Z,17.93
2017-07-16T02:45:25.256Z,17.99
2017-07-16T02:46:05.801Z,17.93
2017-07-16T02:46:46.344Z,17.82
2017-07-16T02:47:26.886Z,17.95
2017-07-16T02:48:07.427Z,17.84
2017-07-16T02:48:47.961Z,17.78
2017-07-16T02:49:28.511Z,17.81
2017-07-16T02:50:09.055Z,17.89
2017-07-16T02:50:49.599Z,17.82
2017-07-16T02:51:30.135Z,17.84
2017-07-16T02:52:10.683Z,17.79
2017-07-16T02:52:51.225Z,17.81
2017-07-16T02:53:31.767Z,17.84
2017-07-16T02:54:12.313Z,17.79
2017-07-16T02:54:52.854Z,17.82
2017-07-16T02:55:33.395Z,17.75
2017-07-16T02:56:13.938Z,17.81
2017-07-16T02:56:54.474Z,17.78
2017-07-16T02:57:35.016Z,17.77
2017-07-16T02:58:15.558Z,17.74
2017-07-16T02:58:56.102Z,17.81
2017-07-16T02:59:36.647Z,17.81
2017-07-16T03:00:17.191Z,17.79
2017-07-16T03:00:57.732Z,17.79
2017-07-16T03:01:38.285Z,17.77
2017-07-16T03:02:18.827Z,17.81
2017-07-16T03:02:59.373Z,17.78
2017-07-16T03:03:39.919Z,17.79
2017-07-16T03:04:20.464Z,17.82
2017-07-16T03:05:00.992Z,17.87
2017-07-16T03:05:41.543Z,17.87
2017-07-16T03:06:22.088Z,17.79
2017-07-16T03:07:02.634Z,17.81
2017-07-16T03:07:43.174Z,17.87
2017-07-16T03:08:23.718Z,17.79
2017-07-16T03:09:04.260Z,17.79
2017-07-16T03:09:44.831Z,17.81
2017-07-16T03:10:25.345Z,17.84
2017-07-16T03:11:05.889Z,17.9
2017-07-16T03:11:46.432Z,17.77
2017-07-16T03:12:26.960Z,17.84
2017-07-16T03:13:07.511Z,17.84
2017-07-16T03:13:48.043Z,17.84
2017-07-16T03:14:28.589Z,17.81
2017-07-16T03:15:09.127Z,17.84
2017-07-16T03:15:49.675Z,17.77
2017-07-16T03:16:30.215Z,17.79
2017-07-16T03:17:10.762Z,17.77
2017-07-16T03:17:51.308Z,17.75
2017-07-16T03:18:31.886Z,17.81
2017-07-16T03:19:12.391Z,17.72
2017-07-16T03:19:52.931Z,17.79
2017-07-16T03:20:33.474Z,17.79
2017-07-16T03:21:14.016Z,17.78
2017-07-16T03:21:54.555Z,17.86
2017-07-16T03:22:35.101Z,17.78
2017-07-16T03:23:15.641Z,17.78
2017-07-16T03:23:56.185Z,17.74
2017-07-16T03:24:36.724Z,17.72
2017-07-16T03:25:17.272Z,17.78
2017-07-16T03:25:57.824Z,17.77
2017-07-16T03:26:38.357Z,17.74
2017-07-16T03:27:18.896Z,17.74
2017-07-16T03:27:59.434Z,17.84
2017-07-16T03:28:39.976Z,17.79
2017-07-16T03:29:20.509Z,17.79
2017-07-16T03:30:01.058Z,17.81
2017-07-16T03:30:41.592Z,17.81
2017-07-16T03:31:22.142Z,17.82
2017-07-16T03:32:02.677Z,17.81
2017-07-16T03:32:43.224Z,17.77
2017-07-16T03:33:23.765Z,17.77
2017-07-16T03:34:04.303Z,17.78
2017-07-16T03:34:44.842Z,17.78
2017-07-16T03:35:25.369Z,17.75
2017-07-16T03:36:05.946Z,17.79
2017-07-16T03:36:46.456Z,17.74
2017-07-16T03:37:27.002Z,17.78
2017-07-16T03:38:07.552Z,17.75
2017-07-16T03:38:48.082Z,17.75
2017-07-16T03:39:28.618Z,17.81
2017-07-16T03:40:09.160Z,17.74
2017-07-16T03:40:49.701Z,17.77
2017-07-16T03:41:30.247Z,17.81
2017-07-16T03:42:10.789Z,17.79
2017-07-16T03:42:51.325Z,17.77
2017-07-16T03:43:31.891Z,17.78
2017-07-16T03:44:12.427Z,17.82
2017-07-16T03:44:52.958Z,17.82
2017-07-16T03:45:33.496Z,17.92
2017-07-16T03:46:14.037Z,17.86
2017-07-16T03:46:54.574Z,17.95
2017-07-16T03:47:35.118Z,17.89
2017-07-16T03:48:15.665Z,17.9
2017-07-16T03:48:56.204Z,17.9
2017-07-16T03:49:36.746Z,17.82
2017-07-16T03:50:17.289Z,17.92
2017-07-16T03:50:57.829Z,17.92
2017-07-16T03:51:38.372Z,17.89
2017-07-16T03:52:18.913Z,17.92
2017-07-16T03:52:59.450Z,17.95
2017-07-16T03:53:39.995Z,17.96
2017-07-16T03:54:20.533Z,17.93
2017-07-16T03:55:01.097Z,17.92
2017-07-16T03:55:41.635Z,17.92
2017-07-16T03:56:22.173Z,17.9
2017-07-16T03:57:02.715Z,17.92
2017-07-16T03:57:43.257Z,17.96
2017-07-16T03:58:23.794Z,17.9
2017-07-16T03:59:04.332Z,17.96
2017-07-16T03:59:44.871Z,17.95
2017-07-16T04:00:25.412Z,17.93
2017-07-16T04:01:05.958Z,17.92
2017-07-16T04:01:46.505Z,17.96
2017-07-16T04:02:27.047Z,17.95
2017-07-16T04:03:07.586Z,17.97
2017-07-16T04:03:48.134Z,17.95
2017-07-16T04:04:28.673Z,17.97
2017-07-16T04:05:09.209Z,18.02
2017-07-16T04:05:49.749Z,17.97
2017-07-16T04:06:30.295Z,17.97
2017-07-16T04:07:10.830Z,17.97
2017-07-16T04:07:51.378Z,17.95
2017-07-16T04:08:31.914Z,18.07
2017-07-16T04:09:12.459Z,18.02
2017-07-16T04:09:53.000Z,18.05
2017-07-16T04:10:33.539Z,17.93
2017-07-16T04:11:14.081Z,17.97
2017-07-16T04:11:54.611Z,17.95
2017-07-16T04:12:35.152Z,17.92
2017-07-16T04:13:15.695Z,17.96
2017-07-16T04:13:56.234Z,17.97
2017-07-16T04:14:36.778Z,18
2017-07-16T04:15:17.321Z,17.97
2017-07-16T04:15:57.869Z,17.92
2017-07-16T04:16:38.408Z,18
2017-07-16T04:17:18.950Z,18.03
2017-07-16T04:17:59.497Z,17.96
2017-07-16T04:18:40.041Z,18
2017-07-16T04:19:20.579Z,17.93
2017-07-16T04:20:01.120Z,18.1
2017-07-16T04:20:41.662Z,18.08
2017-07-16T04:21:22.208Z,18.02
2017-07-16T04:22:02.744Z,18
2017-07-16T04:22:43.293Z,17.93
2017-07-16T04:23:23.831Z,17.92
2017-07-16T04:24:04.377Z,17.95
2017-07-16T04:24:44.918Z,17.99
2017-07-16T04:25:25.460Z,17.93
2017-07-16T04:26:06.008Z,17.97
2017-07-16T04:26:46.555Z,17.97
2017-07-16T04:27:27.096Z,17.96
2017-07-16T04:28:07.648Z,17.9
2017-07-16T04:28:48.185Z,17.96
2017-07-16T04:29:28.724Z,17.95
2017-07-16T04:30:09.257Z,17.93
2017-07-16T04:30:49.795Z,17.96
2017-07-16T04:31:30.340Z,17.93
2017-07-16T04:32:10.886Z,17.96
2017-07-16T04:32:51.424Z,17.95
2017-07-16T04:33:31.967Z,18
2017-07-16T04:34:12.511Z,18.1
2017-07-16T04:34:53.053Z,17.97
2017-07-16T04:35:33.580Z,17.97
2017-07-16T04:36:14.131Z,17.96
2017-07-16T04:36:54.674Z,17.97
2017-07-16T04:37:35.215Z,17.95
2017-07-16T04:38:15.760Z,17.9
2017-07-16T04:38:56.297Z,17.93
2017-07-16T04:39:36.839Z,18.1
2017-07-16T04:40:17.385Z,18.03
2017-07-16T04:40:57.933Z,17.93
2017-07-16T04:41:38.473Z,17.93
2017-07-16T04:42:19.019Z,17.93
2017-07-16T04:42:59.566Z,17.92
2017-07-16T04:43:40.111Z,18
2017-07-16T04:44:20.647Z,17.95
2017-07-16T04:45:01.199Z,17.97
2017-07-16T04:45:41.740Z,17.95
2017-07-16T04:46:22.286Z,17.93
2017-07-16T04:47:02.833Z,17.92
2017-07-16T04:47:43.372Z,17.99
2017-07-16T04:48:23.915Z,17.95
2017-07-16T04:49:04.453Z,18.03
2017-07-16T04:49:44.992Z,18.11
2017-07-16T04:50:25.540Z,17.97
2017-07-16T04:51:06.084Z,17.95
2017-07-16T04:51:46.625Z,18.02
2017-07-16T04:52:27.166Z,17.93
2017-07-16T04:53:07.700Z,17.96
2017-07-16T04:53:48.261Z,17.95
2017-07-16T04:54:28.799Z,17.95
2017-07-16T04:55:09.335Z,17.97
2017-07-16T04:55:49.881Z,17.96
2017-07-16T04:56:30.420Z,17.97
2017-07-16T04:57:10.972Z,18.05
2017-07-16T04:57:51.543Z,17.9
2017-07-16T04:58:32.055Z,18.07
2017-07-16T04:59:12.665Z,17.95
2017-07-16T04:59:53.208Z,17.99
2017-07-16T05:00:33.751Z,18.02
2017-07-16T05:01:14.294Z,17.92
2017-07-16T05:01:54.838Z,18
2017-07-16T05:02:35.365Z,17.97
2017-07-16T05:03:15.904Z,17.93
2017-07-16T05:03:56.449Z,17.99
2017-07-16T05:04:36.994Z,17.96
2017-07-16T05:05:17.539Z,17.97
2017-07-16T05:05:58.086Z,17.97
2017-07-16T05:06:38.629Z,17.99
2017-07-16T05:07:19.167Z,17.92
2017-07-16T05:07:59.710Z,17.97
2017-07-16T05:08:40.253Z,17.95
2017-07-16T05:09:20.796Z,17.9
2017-07-16T05:10:01.346Z,17.99
2017-07-16T05:10:41.885Z,17.96
2017-07-16T05:11:22.429Z,18.02
2017-07-16T05:12:02.971Z,18.07
2017-07-16T05:12:43.514Z,17.96
2017-07-16T05:13:24.061Z,18.02
2017-07-16T05:14:04.607Z,17.97
2017-07-16T05:14:45.149Z,18.03
2017-07-16T05:15:25.738Z,18.02
2017-07-16T05:16:06.249Z,18.05
2017-07-16T05:16:46.820Z,17.96
2017-07-16T05:17:27.367Z,17.99
2017-07-16T05:18:07.912Z,18.08
2017-07-16T05:18:48.455Z,18.08
2017-07-16T05:19:28.998Z,18.07
2017-07-16T05:20:09.538Z,18.08
2017-07-16T05:20:50.083Z,18.08
2017-07-16T05:21:30.626Z,18.08
2017-07-16T05:22:11.163Z,18.14
2017-07-16T05:22:51.719Z,18.15
2017-07-16T05:23:32.264Z,18.17
2017-07-16T05:24:12.820Z,18.1
2017-07-16T05:24:53.372Z,18.17
2017-07-16T05:25:33.913Z,18.14
2017-07-16T05:26:14.459Z,18.18
2017-07-16T05:26:55.005Z,18.21
2017-07-16T05:27:35.552Z,18.18
2017-07-16T05:28:16.100Z,18.23
2017-07-16T05:28:56.678Z,18.2
2017-07-16T05:29:37.229Z,18.25
2017-07-16T05:30:17.778Z,18.23
2017-07-16T05:30:58.324Z,18.3
2017-07-16T05:31:38.877Z,18.21
2017-07-16T05:32:19.425Z,18.29
2017-07-16T05:32:59.963Z,18.26
2017-07-16T05:33:40.505Z,18.29
2017-07-16T05:34:21.051Z,18.36
2017-07-16T05:35:01.596Z,18.36
2017-07-16T05:35:42.119Z,18.35
2017-07-16T05:36:22.651Z,18.3
2017-07-16T05:37:03.194Z,18.44
2017-07-16T05:37:43.728Z,18.35
2017-07-16T05:38:24.284Z,18.3
2017-07-16T05:39:04.829Z,18.45
2017-07-16T05:39:45.380Z,18.35
2017-07-16T05:40:25.916Z,18.41
2017-07-16T05:41:06.473Z,18.35
2017-07-16T05:41:47.017Z,18.45
2017-07-16T05:42:27.565Z,18.39
2017-07-16T05:43:08.104Z,18.48
2017-07-16T05:43:48.691Z,18.41
2017-07-16T05:44:29.250Z,18.55
2017-07-16T05:45:09.776Z,18.42
2017-07-16T05:45:50.315Z,18.5
2017-07-16T05:46:30.877Z,18.5
2017-07-16T05:47:11.424Z,18.5
2017-07-16T05:47:51.975Z,18.48
2017-07-16T05:48:32.517Z,18.47
2017-07-16T05:49:13.066Z,18.48
2017-07-16T05:49:54.702Z,18.51
2017-07-16T05:50:36.297Z,18.5
2017-07-16T05:51:17.287Z,18.5
2017-07-16T05:51:57.829Z,18.48
2017-07-16T05:52:38.373Z,18.52
2017-07-16T05:53:18.914Z,18.55
2017-07-16T05:53:59.450Z,18.48
2017-07-16T05:54:40.026Z,18.45
2017-07-16T05:55:20.544Z,18.47
2017-07-16T05:56:01.082Z,18.47
2017-07-16T05:56:41.657Z,18.47
2017-07-16T05:57:22.175Z,18.5
2017-07-16T05:58:02.723Z,18.54
2017-07-16T05:58:43.265Z,18.44
2017-07-16T05:59:23.794Z,18.5
2017-07-16T06:00:04.342Z,18.52
2017-07-16T06:00:44.875Z,18.45
2017-07-16T06:01:25.435Z,18.47
2017-07-16T06:02:05.967Z,18.55
2017-07-16T06:02:46.502Z,18.5
2017-07-16T06:03:27.039Z,18.5
2017-07-16T06:04:07.591Z,18.5
2017-07-16T06:04:48.123Z,18.51
2017-07-16T06:05:28.670Z,18.48
2017-07-16T06:06:09.215Z,18.47
2017-07-16T06:06:49.759Z,18.47
2017-07-16T06:07:30.323Z,18.47
2017-07-16T06:08:10.862Z,18.55
2017-07-16T06:08:51.412Z,18.58
2017-07-16T06:09:31.955Z,18.51
2017-07-16T06:10:12.501Z,18.5
2017-07-16T06:10:53.045Z,18.5
2017-07-16T06:11:33.587Z,18.52
2017-07-16T06:12:14.135Z,18.48
2017-07-16T06:12:54.681Z,18.54
2017-07-16T06:13:35.222Z,18.51
2017-07-16T06:14:15.791Z,18.51
2017-07-16T06:14:56.318Z,18.51
2017-07-16T06:15:36.868Z,18.58
2017-07-16T06:16:17.413Z,18.54
2017-07-16T06:16:57.954Z,18.5
2017-07-16T06:17:38.502Z,18.55
2017-07-16T06:18:19.041Z,18.47
2017-07-16T06:18:59.594Z,18.55
2017-07-16T06:19:40.139Z,18.5
2017-07-16T06:20:20.682Z,18.54
2017-07-16T06:21:01.226Z,18.6
2017-07-16T06:21:41.767Z,18.55
2017-07-16T06:22:22.304Z,18.63
2017-07-16T06:23:02.848Z,18.58
2017-07-16T06:23:43.386Z,18.62
2017-07-16T06:24:23.929Z,18.65
2017-07-16T06:25:04.465Z,18.62
2017-07-16T06:25:45.010Z,18.62
2017-07-16T06:26:25.554Z,18.65
2017-07-16T06:27:06.102Z,18.63
2017-07-16T06:27:46.645Z,18.58
2017-07-16T06:28:27.188Z,18.63
2017-07-16T06:29:07.738Z,18.63
2017-07-16T06:29:48.280Z,18.62
2017-07-16T06:30:28.822Z,18.63
2017-07-16T06:31:09.365Z,18.63
2017-07-16T06:31:49.908Z,18.6
2017-07-16T06:32:30.457Z,18.6
2017-07-16T06:33:10.996Z,18.52
2017-07-16T06:33:51.533Z,18.54
2017-07-16T06:34:32.071Z,18.54
2017-07-16T06:35:12.613Z,18.51
2017-07-16T06:35:53.159Z,18.55
2017-07-16T06:36:33.701Z,18.47
2017-07-16T06:37:14.276Z,18.55
2017-07-16T06:37:54.822Z,18.47
2017-07-16T06:38:35.368Z,18.5
2017-07-16T06:39:15.908Z,18.54
2017-07-16T06:39:56.449Z,18.45
2017-07-16T06:40:36.993Z,18.51
2017-07-16T06:41:17.529Z,18.47
2017-07-16T06:41:58.073Z,18.41
2017-07-16T06:42:38.624Z,18.51
2017-07-16T06:43:19.201Z,18.45
2017-07-16T06:43:59.725Z,18.48
2017-07-16T06:44:40.272Z,18.42
2017-07-16T06:45:20.823Z,18.44
2017-07-16T06:46:01.365Z,18.44
2017-07-16T06:46:41.906Z,18.41
2017-07-16T06:47:22.443Z,18.45
2017-07-16T06:48:02.990Z,18.42
2017-07-16T06:48:43.536Z,18.36
2017-07-16T06:49:24.072Z,18.33
2017-07-16T06:50:04.621Z,18.33
2017-07-16T06:50:45.161Z,18.36
2017-07-16T06:51:25.703Z,18.35
2017-07-16T06:52:06.251Z,18.32
2017-07-16T06:52:46.794Z,18.45
2017-07-16T06:53:27.336Z,18.44
2017-07-16T06:54:07.872Z,18.39
2017-07-16T06:54:48.415Z,18.35
2017-07-16T06:55:28.947Z,18.33
2017-07-16T06:56:09.492Z,18.26
2017-07-16T06:56:50.029Z,18.25
2017-07-16T06:57:30.570Z,18.25
2017-07-16T06:58:11.114Z,18.2
2017-07-16T06:58:51.659Z,18.05
2017-07-16T06:59:32.201Z,17.99
2017-07-16T07:00:12.748Z,17.95
2017-07-16T07:00:53.293Z,17.93
2017-07-16T07:01:33.838Z,17.96
2017-07-16T07:02:14.386Z,17.84
2017-07-16T07:02:54.931Z,17.84
2017-07-16T07:03:35.474Z,17.68
2017-07-16T07:04:16.006Z,17.58
2017-07-16T07:04:56.539Z,17.54
2017-07-16T07:05:37.079Z,17.43
2017-07-16T07:06:17.624Z,17.37
2017-07-16T07:06:58.171Z,17.4
2017-07-16T07:07:38.719Z,17.34
2017-07-16T07:08:19.294Z,17.41
2017-07-16T07:08:59.839Z,17.28
2017-07-16T07:09:40.384Z,17.3
2017-07-16T07:10:20.926Z,17.25
2017-07-16T07:11:01.475Z,17.34
2017-07-16T07:11:42.015Z,17.28
2017-07-16T07:12:22.558Z,17.3
2017-07-16T07:13:03.105Z,17.31
2017-07-16T07:13:43.644Z,17.25
2017-07-16T07:14:24.188Z,17.28
2017-07-16T07:15:04.735Z,17.21
2017-07-16T07:15:45.278Z,17.21
2017-07-16T07:16:25.809Z,17.21
2017-07-16T07:17:06.349Z,17.19
2017-07-16T07:17:46.902Z,17.23
2017-07-16T07:18:27.450Z,17.21
2017-07-16T07:19:07.987Z,17.23
2017-07-16T07:19:48.535Z,17.19
2017-07-16T07:20:29.083Z,17.19
2017-07-16T07:21:09.626Z,17.25
2017-07-16T07:21:50.170Z,17.16
2017-07-16T07:22:30.710Z,17.23
2017-07-16T07:23:11.253Z,17.18
2017-07-16T07:23:51.795Z,17.15
2017-07-16T07:24:32.331Z,17.16
2017-07-16T07:25:12.881Z,17.07
2017-07-16T07:25:53.410Z,17.08
2017-07-16T07:26:33.960Z,17.18
2017-07-16T07:27:14.502Z,17.18
2017-07-16T07:27:55.044Z,17.16
2017-07-16T07:28:35.615Z,17.04
2017-07-16T07:29:16.164Z,17.21
2017-07-16T07:29:56.675Z,17.18
2017-07-16T07:30:37.222Z,17.06
2017-07-16T07:31:17.770Z,17.11
2017-07-16T07:31:58.307Z,17.16
2017-07-16T07:32:38.842Z,17.18
2017-07-16T07:33:19.389Z,17.07
2017-07-16T07:33:59.931Z,17.06
2017-07-16T07:34:40.474Z,17
2017-07-16T07:35:21.068Z,17.12
2017-07-16T07:36:01.609Z,17.07
2017-07-16T07:36:42.140Z,17.08
2017-07-16T07:37:22.682Z,17.03
2017-07-16T07:38:03.230Z,17.07
2017-07-16T07:38:43.772Z,17.08
2017-07-16T07:39:24.312Z,17.06
2017-07-16T07:40:04.860Z,17
2017-07-16T07:40:45.396Z,16.98
2017-07-16T07:41:25.941Z,16.96
2017-07-16T07:42:06.485Z,16.93
2017-07-16T07:42:47.028Z,16.97
2017-07-16T07:43:27.567Z,16.97
2017-07-16T07:44:08.102Z,16.97
2017-07-16T07:44:48.628Z,16.97
2017-07-16T07:45:29.191Z,17.06
2017-07-16T07:46:09.729Z,17.01
2017-07-16T07:46:50.273Z,17.08
2017-07-16T07:47:30.814Z,17.06
2017-07-16T07:48:11.362Z,17.15
2017-07-16T07:48:51.902Z,17.15
2017-07-16T07:49:32.446Z,17.15
2017-07-16T07:50:12.980Z,17.11
2017-07-16T07:50:53.522Z,17.25
2017-07-16T07:51:34.063Z,17.22
2017-07-16T07:52:14.608Z,17.28
2017-07-16T07:52:55.151Z,17.31
2017-07-16T07:53:35.689Z,17.31
2017-07-16T07:54:16.235Z,17.28
2017-07-16T07:54:56.775Z,17.28
2017-07-16T07:55:37.327Z,17.36
2017-07-16T07:56:17.873Z,17.46
2017-07-16T07:56:58.421Z,17.41
2017-07-16T07:57:38.963Z,17.48
2017-07-16T07:58:19.509Z,17.54
2017-07-16T07:59:00.057Z,17.55
2017-07-16T07:59:40.605Z,17.52
2017-07-16T08:00:21.600Z,17.58
2017-07-16T08:01:02.146Z,17.59
2017-07-16T08:01:42.686Z,17.64
2017-07-16T08:02:23.228Z,17.63
2017-07-16T08:03:03.772Z,17.56
2017-07-16T08:03:44.317Z,17.55
2017-07-16T08:04:24.872Z,17.56
2017-07-16T08:05:05.420Z,17.63
2017-07-16T08:05:45.969Z,17.64
2017-07-16T08:06:26.588Z,17.63
2017-07-16T08:07:07.139Z,17.56
2017-07-16T08:07:47.688Z,17.63
2017-07-16T08:08:28.219Z,17.59
2017-07-16T08:09:08.769Z,17.59
2017-07-16T08:09:49.313Z,17.63
2017-07-16T08:10:29.863Z,17.64
2017-07-16T08:11:10.410Z,17.55
2017-07-16T08:11:50.956Z,17.56
2017-07-16T08:12:31.505Z,17.52
2017-07-16T08:13:12.046Z,17.59
2017-07-16T08:13:52.593Z,17.68
2017-07-16T08:14:33.124Z,17.58
2017-07-16T08:15:13.666Z,17.66
2017-07-16T08:15:54.204Z,17.64
2017-07-16T08:16:34.756Z,17.56
2017-07-16T08:17:15.296Z,17.59
2017-07-16T08:17:55.835Z,17.59
2017-07-16T08:18:36.378Z,17.56
2017-07-16T08:19:16.915Z,17.58
2017-07-16T08:19:57.489Z,17.62
2017-07-16T08:20:38.009Z,17.55
2017-07-16T08:21:18.550Z,17.59
2017-07-16T08:21:59.094Z,17.64
2017-07-16T08:22:39.639Z,17.66
2017-07-16T08:23:20.182Z,17.66
2017-07-16T08:24:00.723Z,17.68
2017-07-16T08:24:41.265Z,17.71
2017-07-16T08:25:21.814Z,17.77
2017-07-16T08:26:02.424Z,17.77
2017-07-16T08:26:42.980Z,17.79
2017-07-16T08:27:23.524Z,17.81
2017-07-16T08:28:04.073Z,17.79
2017-07-16T08:28:44.699Z,17.79
2017-07-16T08:29:25.243Z,17.93
2017-07-16T08:30:05.835Z,17.93
2017-07-16T08:30:46.385Z,17.96
2017-07-16T08:31:26.926Z,17.92
2017-07-16T08:32:07.472Z,17.93
2017-07-16T08:32:48.141Z,18.05
2017-07-16T08:33:28.745Z,17.92
2017-07-16T08:34:09.278Z,17.97
2017-07-16T08:34:49.888Z,17.95
2017-07-16T08:35:30.432Z,17.95
2017-07-16T08:36:10.970Z,17.93
2017-07-16T08:36:51.594Z,18.02
2017-07-16T08:37:32.234Z,17.99
2017-07-16T08:38:12.838Z,18.02
2017-07-16T08:38:53.453Z,18.03
2017-07-16T08:39:33.990Z,18.05
2017-07-16T08:40:14.602Z,18.12
2017-07-16T08:40:55.146Z,18.15
2017-07-16T08:41:35.796Z,18.12
2017-07-16T08:42:16.340Z,18.08
2017-07-16T08:42:56.885Z,18.1
2017-07-16T08:43:37.524Z,18.15
2017-07-16T08:44:18.120Z,18.15
2017-07-16T08:44:58.672Z,18.12
2017-07-16T08:45:39.221Z,18.14